Aviation Digital Data Service (ADDS)

Output produced by METARs form (0203 UTC 26 April 2017)
found at http://www.aviationweather.gov/adds/metars/
 
METAR text: KAMW 260153Z AUTO 34017KT 10SM OVC050 14/12 A2945 RMK AO2 WSHFT 0116 SLP968 T01390117
Conditions at: KAMW (AMES , IA, US) observed 0153 UTC 26 April 2017
Temperature: 13.9°C (57°F)
Dewpoint: 11.7°C (53°F) [RH = 87%]
Pressure (altimeter): 29.45 inches Hg (997.4 mb)
[Sea-level pressure: 996.8 mb]
Winds: from the NNW (340 degrees) at 20 MPH (17 knots; 8.8 m/s)
Visibility: 10 or more miles (16+ km)
Ceiling: 5000 feet AGL
Clouds: overcast cloud deck at 5000 feet AGL
Weather: automated observation with no human augmentation;
there may or may not be significant weather present at this time